createdAt,value
2019-05-14T00:01:51.389Z,99633.40
2019-05-14T00:04:57.082Z,99632.41
2019-05-14T00:08:02.766Z,99614.73
2019-05-14T00:11:08.518Z,99605.45
2019-05-14T00:14:14.200Z,99614.79
2019-05-14T00:17:22.761Z,99618.16
2019-05-14T00:20:28.475Z,99611.47
2019-05-14T00:23:34.150Z,99618.06
2019-05-14T00:26:42.367Z,99630.14
2019-05-14T00:29:47.514Z,99639.88
2019-05-14T00:32:53.209Z,99646.34
2019-05-14T00:35:58.892Z,99652.72
2019-05-14T00:39:05.470Z,99644.30
2019-05-14T00:42:12.593Z,99647.06
2019-05-14T00:45:18.954Z,99633.47
2019-05-14T00:48:24.681Z,99623.83
2019-05-14T00:51:31.823Z,99626.25
2019-05-14T00:54:37.557Z,99633.36
2019-05-14T00:57:43.374Z,99622.67
2019-05-14T01:00:49.092Z,99616.26
2019-05-14T01:03:55.869Z,99617.22
2019-05-14T01:07:01.761Z,99608.72
2019-05-14T01:10:08.031Z,99606.63
2019-05-14T01:13:14.092Z,99599.16
2019-05-14T01:16:22.223Z,99594.69
2019-05-14T01:19:27.348Z,99602.20
2019-05-14T01:22:33.053Z,99602.20
2019-05-14T01:25:38.836Z,99607.55
2019-05-14T01:28:44.630Z,99604.77
2019-05-14T01:31:52.042Z,99610.17
2019-05-14T01:35:01.308Z,99615.61
2019-05-14T01:38:06.356Z,99614.98
2019-05-14T01:41:12.101Z,99620.52
2019-05-14T01:44:17.837Z,99614.16
2019-05-14T01:47:23.741Z,99604.64
2019-05-14T01:50:29.495Z,99623.53
2019-05-14T01:53:35.203Z,99640.11
2019-05-14T01:56:42.396Z,99627.50
2019-05-14T01:59:48.151Z,99634.16
2019-05-14T02:02:53.898Z,99619.41
2019-05-14T02:06:01.383Z,99609.06
2019-05-14T02:09:07.872Z,99612.21
2019-05-14T02:12:13.678Z,99611.34
2019-05-14T02:15:21.408Z,99602.44
2019-05-14T02:18:27.098Z,99601.93
2019-05-14T02:21:32.893Z,99603.95
2019-05-14T02:24:38.594Z,99607.72
2019-05-14T02:27:44.359Z,99596.31
2019-05-14T02:30:57.682Z,99587.62
2019-05-14T02:33:59.200Z,99582.23
2019-05-14T02:37:04.991Z,99576.78
2019-05-14T02:40:10.997Z,99598.90
2019-05-14T02:43:19.617Z,99603.53
2019-05-14T02:46:24.119Z,99594.33
2019-05-14T02:49:30.248Z,99598.21
2019-05-14T02:52:36.127Z,99593.16
2019-05-14T02:55:41.860Z,99581.77
2019-05-14T02:58:49.886Z,99586.85
2019-05-14T03:01:54.973Z,99578.65
2019-05-14T03:05:00.866Z,99577.59
2019-05-14T03:08:09.009Z,99581.83
2019-05-14T03:11:14.674Z,99594.12
2019-05-14T03:14:20.412Z,99581.47
2019-05-14T03:17:26.196Z,99570.54
2019-05-14T03:20:31.990Z,99570.54
2019-05-14T03:23:39.271Z,99578.12
2019-05-14T03:26:45.252Z,99578.12
2019-05-14T03:29:51.191Z,99590.42
2019-05-14T03:33:01.997Z,99608.12
2019-05-14T03:36:09.195Z,99605.01
2019-05-14T03:39:12.223Z,99603.17
2019-05-14T03:42:19.229Z,99613.03
2019-05-14T03:45:25.332Z,99616.97
2019-05-14T03:48:31.247Z,99601.17
2019-05-14T03:51:39.343Z,99600.36
2019-05-14T03:54:44.711Z,99598.70
2019-05-14T03:57:50.479Z,99601.66
2019-05-14T04:01:02.770Z,99584.38
2019-05-14T04:04:10.175Z,99577.73
2019-05-14T04:07:19.548Z,99578.02
2019-05-14T04:10:24.618Z,99583.83
2019-05-14T04:13:32.294Z,99587.27
2019-05-14T04:16:40.026Z,99581.88
2019-05-14T04:19:51.374Z,99570.27
2019-05-14T04:23:00.219Z,99558.33
2019-05-14T04:26:09.368Z,99569.84
2019-05-14T04:29:19.636Z,99579.81
2019-05-14T04:32:24.107Z,99582.98
2019-05-14T04:35:30.198Z,99588.27
2019-05-14T04:38:35.935Z,99589.00
2019-05-14T04:41:41.639Z,99573.63
2019-05-14T04:44:50.205Z,99575.86
2019-05-14T04:47:54.942Z,99612.06
2019-05-14T04:51:00.827Z,99633.56
2019-05-14T04:54:09.442Z,99634.50
2019-05-14T04:57:13.948Z,99634.50
2019-05-14T05:00:20.056Z,99648.72
2019-05-14T05:03:25.776Z,99652.33
2019-05-14T05:06:31.504Z,99634.13
2019-05-14T05:09:39.818Z,99628.66
2019-05-14T05:12:44.676Z,99628.88
2019-05-14T05:15:50.404Z,99630.25
2019-05-14T05:18:59.182Z,99630.25
2019-05-14T05:22:03.540Z,99613.47
2019-05-14T05:25:09.576Z,99613.47
2019-05-14T05:28:15.307Z,99585.95
2019-05-14T05:31:21.011Z,99585.95
2019-05-14T05:34:28.300Z,99600.29
2019-05-14T05:37:34.321Z,99605.56
2019-05-14T05:40:40.020Z,99605.22
2019-05-14T05:43:48.373Z,99605.30
2019-05-14T05:46:55.729Z,99605.30
2019-05-14T05:50:01.588Z,99610.65
2019-05-14T05:53:09.056Z,99587.86
2019-05-14T05:56:52.601Z,99595.42
2019-05-14T06:01:19.670Z,99607.52
2019-05-14T06:04:58.764Z,99607.52
2019-05-14T06:08:15.355Z,99618.72
2019-05-14T06:11:22.348Z,99608.89
2019-05-14T06:14:29.165Z,99602.59
2019-05-14T06:17:35.126Z,99596.38
2019-05-14T06:20:42.891Z,99608.11
2019-05-14T06:23:49.290Z,99608.83
2019-05-14T06:26:55.129Z,99615.05
2019-05-14T06:30:00.923Z,99613.10
2019-05-14T06:33:09.775Z,99619.41
2019-05-14T06:36:15.594Z,99638.62
2019-05-14T06:39:21.439Z,99638.62
2019-05-14T06:42:28.514Z,99652.57
2019-05-14T06:45:34.358Z,99639.46
2019-05-14T06:48:40.065Z,99605.61
2019-05-14T06:51:48.710Z,99605.61
2019-05-14T06:54:53.343Z,99608.75
2019-05-14T06:57:59.174Z,99609.06
2019-05-14T07:01:04.937Z,99602.33
2019-05-14T07:04:10.632Z,99578.37
2019-05-14T07:07:16.571Z,99559.28
2019-05-14T07:10:22.335Z,99557.08
2019-05-14T07:13:29.235Z,99573.09
2019-05-14T07:16:35.266Z,99588.83
2019-05-14T07:19:40.972Z,99573.56
2019-05-14T07:22:48.385Z,99573.56
2019-05-14T07:25:54.347Z,99572.06
2019-05-14T07:29:00.182Z,99589.80
2019-05-14T07:32:08.755Z,99587.41
2019-05-14T07:35:13.426Z,99591.41
2019-05-14T07:38:19.616Z,99615.47
2019-05-14T07:41:28.287Z,99606.59
2019-05-14T07:44:32.945Z,99609.05
2019-05-14T07:47:39.037Z,99609.05
2019-05-14T07:50:48.258Z,99610.84
2019-05-14T07:53:52.572Z,99570.73
2019-05-14T07:56:59.092Z,99570.73
2019-05-14T08:00:05.598Z,99606.06
2019-05-14T08:03:11.354Z,99600.83
2019-05-14T08:06:18.898Z,99604.28
2019-05-14T08:09:25.277Z,99601.69
2019-05-14T08:12:31.011Z,99612.94
2019-05-14T08:15:38.707Z,99616.44
2019-05-14T08:18:44.319Z,99581.63
2019-05-14T08:21:53.234Z,99545.09
2019-05-14T08:24:59.111Z,99538.92
2019-05-14T08:28:04.887Z,99533.18
2019-05-14T08:31:10.685Z,99533.18
2019-05-14T08:34:19.006Z,99554.40
2019-05-14T08:37:23.974Z,99579.13
2019-05-14T08:40:35.159Z,99579.84
2019-05-14T08:43:41.072Z,99567.50
2019-05-14T08:46:48.664Z,99553.81
2019-05-14T08:49:54.181Z,99547.77
2019-05-14T08:52:59.912Z,99558.50
2019-05-14T08:56:08.143Z,99545.46
2019-05-14T08:59:13.198Z,99552.27
2019-05-14T09:02:19.734Z,99552.98
2019-05-14T09:05:25.539Z,99551.20
2019-05-14T09:08:31.324Z,99557.99
2019-05-14T09:11:45.144Z,99515.13
2019-05-14T09:14:48.321Z,99515.13
2019-05-14T09:17:54.332Z,99515.09
2019-05-14T09:21:00.057Z,99536.14
2019-05-14T09:24:09.394Z,99560.44
2019-05-14T09:27:14.496Z,99529.86
2019-05-14T09:30:20.472Z,99482.15
2019-05-14T09:33:26.258Z,99467.25
2019-05-14T09:36:31.932Z,99502.40
2019-05-14T09:39:38.555Z,99496.21
2019-05-14T09:42:44.609Z,99529.55
2019-05-14T09:45:50.318Z,99500.97
2019-05-14T09:48:56.027Z,99490.40
2019-05-14T09:52:01.796Z,99490.40
2019-05-14T09:55:09.383Z,99482.37
2019-05-14T09:58:15.426Z,99511.34
2019-05-14T10:01:21.322Z,99513.45
2019-05-14T10:04:27.166Z,99501.64
2019-05-14T10:07:32.891Z,99501.77
2019-05-14T10:10:39.910Z,99492.42
2019-05-14T10:13:48.186Z,99503.64
2019-05-14T10:16:53.374Z,99499.34
2019-05-14T10:19:59.625Z,99504.59
2019-05-14T10:23:05.824Z,99499.61
2019-05-14T10:26:11.502Z,99485.31
2019-05-14T10:29:19.144Z,99469.88
2019-05-14T10:32:24.714Z,99460.52
2019-05-14T10:35:30.412Z,99464.64
2019-05-14T10:38:38.553Z,99442.68
2019-05-14T10:41:44.592Z,99431.23
2019-05-14T10:44:50.674Z,99426.42
2019-05-14T10:47:58.609Z,99436.25
2019-05-14T10:51:05.367Z,99425.02
2019-05-14T10:54:22.503Z,99420.05
2019-05-14T10:57:18.753Z,99428.38
2019-05-14T11:00:24.968Z,99417.70
2019-05-14T11:03:32.309Z,99426.67
2019-05-14T11:06:38.792Z,99417.78
2019-05-14T11:09:44.666Z,99406.33
2019-05-14T11:12:54.829Z,99418.83
2019-05-14T11:15:59.953Z,99413.34
2019-05-14T11:19:09.038Z,99402.45
2019-05-14T11:22:14.966Z,99383.01
2019-05-14T11:25:20.943Z,99402.83
2019-05-14T11:28:28.562Z,99403.59
2019-05-14T11:31:34.450Z,99396.12
2019-05-14T11:34:40.372Z,99394.70
2019-05-14T11:37:48.149Z,99398.30
2019-05-14T11:40:54.164Z,99385.67
2019-05-14T11:43:59.982Z,99387.39
2019-05-14T11:47:05.755Z,99391.23
2019-05-14T11:50:12.036Z,99400.05
2019-05-14T11:53:20.115Z,99396.00
2019-05-14T11:56:25.175Z,99392.81
2019-05-14T11:59:31.667Z,99389.20
2019-05-14T12:02:44.121Z,99385.53
2019-05-14T12:05:52.922Z,99382.81
2019-05-14T12:08:58.732Z,99382.56
2019-05-14T12:12:04.776Z,99386.88
2019-05-14T12:15:10.903Z,99377.47
2019-05-14T12:18:18.550Z,99370.81
2019-05-14T12:21:24.998Z,99379.55
2019-05-14T12:24:30.844Z,99375.81
2019-05-14T12:27:38.751Z,99372.77
2019-05-14T12:30:45.126Z,99346.97
2019-05-14T12:33:50.919Z,99341.70
2019-05-14T12:36:58.212Z,99334.47
2019-05-14T12:40:04.382Z,99327.95
2019-05-14T12:43:10.104Z,99327.84
2019-05-14T12:46:15.981Z,99323.16
2019-05-14T12:49:21.733Z,99322.16
2019-05-14T12:52:29.637Z,99321.85
2019-05-14T12:55:34.910Z,99318.05
2019-05-14T12:58:45.438Z,99312.75
2019-05-14T13:01:49.284Z,99307.41
2019-05-14T13:04:55.173Z,99300.77
2019-05-14T13:08:00.900Z,99305.05
2019-05-14T13:11:09.322Z,99309.92
2019-05-14T13:14:14.224Z,99305.41
2019-05-14T13:17:19.962Z,99297.84
2019-05-14T13:20:29.101Z,99306.16
2019-05-14T13:23:35.079Z,99292.95
2019-05-14T13:26:40.755Z,99285.39
2019-05-14T13:56:04.093Z,99251.07
2019-05-14T13:59:10.006Z,99246.39
2019-05-14T14:02:18.688Z,99242.24
2019-05-14T14:05:23.266Z,99244.48
2019-05-14T14:08:29.388Z,99244.15
2019-05-14T14:11:35.442Z,99243.03
2019-05-14T14:14:41.523Z,99246.48
2019-05-14T14:17:49.415Z,99241.92
2019-05-14T14:20:54.675Z,99238.06
2019-05-14T14:24:00.359Z,99230.52
2019-05-14T14:27:08.925Z,99220.86
2019-05-14T14:30:14.723Z,99212.55
2019-05-14T14:33:20.541Z,99206.88
2019-05-14T14:36:29.857Z,99208.75
2019-05-14T14:39:33.781Z,99197.80
2019-05-14T14:42:40.453Z,99192.98
2019-05-14T14:45:50.570Z,99189.12
2019-05-14T14:48:57.832Z,99184.56
2019-05-14T14:52:01.520Z,99188.63
2019-05-14T14:55:08.037Z,99187.50
2019-05-14T14:58:15.815Z,99183.94
2019-05-14T15:01:21.282Z,99177.02
2019-05-14T15:04:27.996Z,99180.08
2019-05-14T15:07:33.773Z,99182.72
2019-05-14T15:10:39.717Z,99186.80
2019-05-14T15:13:45.509Z,99174.28
2019-05-14T15:16:51.222Z,99174.98
2019-05-14T15:19:59.545Z,99170.62
2019-05-14T15:23:04.580Z,99150.02
2019-05-14T15:26:12.291Z,99152.45
2019-05-14T15:29:18.731Z,99138.02
2019-05-14T15:32:24.719Z,99132.55
2019-05-14T15:35:30.530Z,99132.84
2019-05-14T15:38:39.707Z,99130.64
2019-05-14T15:41:49.884Z,99129.80
2019-05-14T15:44:56.991Z,99131.87
2019-05-14T15:48:04.268Z,99128.31
2019-05-14T15:51:14.267Z,99113.95
2019-05-14T15:54:36.121Z,99113.74
2019-05-14T15:57:29.518Z,99101.98
2019-05-14T16:00:38.496Z,99100.22
2019-05-14T16:03:44.530Z,99105.00
2019-05-14T16:06:55.138Z,99110.79
2019-05-14T16:10:01.057Z,99113.41
2019-05-14T16:13:08.750Z,99111.13
2019-05-14T16:16:14.857Z,99116.30
2019-05-14T16:19:21.885Z,99115.55
2019-05-14T16:22:29.378Z,99120.97
2019-05-14T16:25:35.392Z,99122.17
2019-05-14T16:28:42.456Z,99115.17
2019-05-14T16:31:48.787Z,99113.41
2019-05-14T16:34:54.779Z,99107.16
2019-05-14T16:38:01.763Z,99113.48
2019-05-14T16:41:07.720Z,99119.69
2019-05-14T16:44:13.424Z,99125.06
2019-05-14T16:47:19.246Z,99135.70
2019-05-14T16:50:25.033Z,99125.23
2019-05-14T16:53:30.785Z,99129.53
2019-05-14T16:56:41.125Z,99124.34
2019-05-14T16:59:44.552Z,99114.80
2019-05-14T17:02:50.253Z,99116.39
2019-05-14T17:05:58.055Z,99104.20
2019-05-14T17:09:03.886Z,99101.14
2019-05-14T17:12:09.966Z,99110.39
2019-05-14T17:15:18.044Z,99107.83
2019-05-14T17:18:23.344Z,99104.50
2019-05-14T17:21:29.847Z,99106.52
2019-05-14T17:24:35.739Z,99104.77
2019-05-14T17:27:42.981Z,99107.63
2019-05-14T17:30:49.236Z,99103.03
2019-05-14T17:33:55.040Z,99102.02
2019-05-14T17:37:01.401Z,99100.80
2019-05-14T17:40:09.419Z,99102.93
2019-05-14T17:43:14.988Z,99114.47
2019-05-14T17:46:20.930Z,99112.16
2019-05-14T17:49:28.339Z,99111.05
2019-05-14T17:52:34.238Z,99106.05
2019-05-14T17:55:47.106Z,99107.69
2019-05-14T17:58:49.162Z,99120.33
2019-05-14T18:01:54.867Z,99119.50
2019-05-14T18:05:00.596Z,99129.74
2019-05-14T18:08:09.302Z,99126.74
2019-05-14T18:11:15.126Z,99135.45
2019-05-14T18:14:20.782Z,99137.27
2019-05-14T18:17:29.447Z,99133.38
2019-05-14T18:20:33.992Z,99138.23
2019-05-14T18:23:42.047Z,99135.99
2019-05-14T18:26:48.124Z,99135.70
2019-05-14T18:29:53.891Z,99134.67
2019-05-14T18:32:59.814Z,99138.86
2019-05-14T18:36:07.940Z,99132.11
2019-05-14T18:39:13.648Z,99136.48
2019-05-14T18:42:19.539Z,99155.37
2019-05-14T18:45:25.363Z,99150.84
2019-05-14T18:48:31.235Z,99155.75
2019-05-14T18:51:36.952Z,99152.05
2019-05-14T18:54:42.720Z,99137.91
2019-05-14T18:57:48.748Z,99147.67
2019-05-14T19:00:54.688Z,99146.18
2019-05-14T19:04:00.451Z,99157.44
2019-05-14T19:07:06.252Z,99161.28
2019-05-14T19:10:12.253Z,99163.27
2019-05-14T19:13:18.740Z,99164.66
2019-05-14T19:16:24.779Z,99165.16
2019-05-14T19:19:30.535Z,99171.47
2019-05-14T19:22:39.465Z,99164.05
2019-05-14T19:25:43.689Z,99169.70
2019-05-14T19:28:49.415Z,99174.70
2019-05-14T19:31:55.202Z,99163.34
2019-05-14T19:35:00.918Z,99156.14
2019-05-14T19:38:08.877Z,99151.73
2019-05-14T19:41:21.029Z,99156.36
2019-05-14T19:44:24.784Z,99160.11
2019-05-14T19:47:30.563Z,99156.47
2019-05-14T19:50:48.878Z,99143.84
2019-05-14T19:53:55.307Z,99148.13
2019-05-14T19:57:06.161Z,99155.69
2019-05-14T20:00:12.537Z,99162.34
2019-05-14T20:03:18.723Z,99157.13
2019-05-14T20:06:33.920Z,99155.38
2019-05-14T20:09:39.923Z,99160.52
2019-05-14T20:12:49.611Z,99150.45
2019-05-14T20:15:58.919Z,99154.33
2019-05-14T20:19:04.315Z,99155.17
2019-05-14T20:22:10.066Z,99146.11
2019-05-14T20:25:16.238Z,99141.06
2019-05-14T20:28:22.227Z,99151.08
2019-05-14T20:31:29.663Z,99144.14
2019-05-14T20:34:35.564Z,99150.18
2019-05-14T20:37:41.277Z,99153.41
2019-05-14T20:40:48.748Z,99149.17
2019-05-14T20:43:56.086Z,99155.05
2019-05-14T20:47:04.457Z,99148.82
2019-05-14T20:50:13.867Z,99147.33
2019-05-14T20:53:19.595Z,99142.22
2019-05-14T20:56:25.282Z,99151.94
2019-05-14T20:59:31.000Z,99154.33
2019-05-14T21:02:39.431Z,99155.02
2019-05-14T21:05:44.304Z,99156.81
2019-05-14T21:08:50.092Z,99154.56
2019-05-14T21:11:55.840Z,99156.77
2019-05-14T21:15:01.550Z,99151.86
2019-05-14T21:18:08.376Z,99148.03
2019-05-14T21:21:14.331Z,99147.80
2019-05-14T21:24:21.780Z,99153.83
2019-05-14T21:27:41.174Z,99152.56
2019-05-14T21:30:35.441Z,99154.87
2019-05-14T21:33:41.490Z,99156.89
2019-05-14T21:36:49.641Z,99157.13
2019-05-14T21:39:55.325Z,99150.75
2019-05-14T21:43:01.185Z,99161.08
2019-05-14T21:46:08.149Z,99161.27
2019-05-14T21:49:15.037Z,99161.86
2019-05-14T21:52:20.782Z,99152.98
2019-05-14T21:55:28.925Z,99158.21
2019-05-14T21:58:38.694Z,99156.45
2019-05-14T22:01:45.455Z,99152.36
2019-05-14T22:04:51.280Z,99152.94
2019-05-14T22:07:57.983Z,99149.59
2019-05-14T22:11:04.916Z,99141.98
2019-05-14T22:14:10.608Z,99144.99
2019-05-14T22:17:16.319Z,99142.91
2019-05-14T22:20:22.117Z,99138.97
2019-05-14T22:23:29.176Z,99146.98
2019-05-14T22:26:35.168Z,99132.84
2019-05-14T22:29:41.233Z,99131.08
2019-05-14T22:32:49.668Z,99132.77
2019-05-14T22:36:00.957Z,99135.84
2019-05-14T22:39:19.787Z,99130.75
2019-05-14T22:43:25.322Z,99128.80
2019-05-14T22:46:24.738Z,99132.02
2019-05-14T22:49:30.662Z,99133.88
2019-05-14T22:52:38.589Z,99126.69
2019-05-14T22:55:43.809Z,99132.91
2019-05-14T22:58:49.513Z,99123.24
2019-05-14T23:01:55.226Z,99124.98
2019-05-14T23:05:01.070Z,99129.81
2019-05-14T23:08:08.972Z,99128.31
2019-05-14T23:11:14.906Z,99128.06
2019-05-14T23:14:20.630Z,99130.81
2019-05-14T23:17:28.031Z,99136.53
2019-05-14T23:20:34.822Z,99135.69
2019-05-14T23:28:24.297Z,99137.56
2019-05-14T23:31:29.996Z,99130.93
2019-05-14T23:34:37.860Z,99140.91
2019-05-14T23:37:43.817Z,99137.82
2019-05-14T23:40:49.567Z,99137.88
2019-05-14T23:43:55.309Z,99133.91
2019-05-14T23:47:01.007Z,99139.29
2019-05-14T23:50:08.170Z,99143.91
2019-05-14T23:53:14.100Z,99140.16
2019-05-14T23:56:19.873Z,99139.03
2019-05-14T23:59:25.895Z,99139.52
